Home > Products > Valid Products > TAF

000
FTUS41 KGYX 180800 AAA
TAFLEB
TAF AMD
KLEB 180847Z 1809/1906 VRB03KT P6SM SCT250
     FM181600 18007KT P6SM BKN200
     FM190000 VRB03KT P6SM BKN100=



000
FTUS41 KGYX 180800 AAA
TAFPWM
TAF AMD
KPWM 180847Z 1809/1906 01004KT P6SM SKC
     FM181400 12008KT P6SM SCT200
     FM181900 14006KT P6SM SCT025 BKN200
     FM190000 18004KT P6SM BKN025=



000
FTUS41 KGYX 180800 AAA
TAFCON
TAF AMD
KCON 180847Z 1809/1906 VRB03KT P6SM SCT250
     FM181500 15006KT P6SM SCT200
     FM190000 VRB03KT P6SM SCT025 BKN100=



000
FTUS41 KGYX 180800 AAA
TAFAUG
TAF AMD
KAUG 180847Z 1809/1906 VRB03KT P6SM SKC
     FM181400 15006KT P6SM SCT200
     FM190000 VRB03KT P6SM BKN025=



000
FTUS41 KGYX 180800 AAA
TAFPSM
TAF AMD
KPSM 180847Z 1809/1906 35005KT P6SM SCT250
     FM181500 10009KT P6SM BKN200
     FM181900 13007KT P6SM SCT020 BKN200
     FM182300 VRB03KT P6SM OVC015=



000
FTUS41 KGYX 180500
TAFLEB
TAF
KLEB 180524Z 1806/1906 VRB03KT P6SM SKC
     FM181600 18007KT P6SM BKN200
     FM190000 VRB03KT P6SM BKN100=



000
FTUS41 KGYX 180500
TAFPSM
TAF
KPSM 180524Z 1806/1906 VRB04KT P6SM SCT250
     FM181500 11009KT P6SM BKN200
     FM181900 13007KT P6SM SCT020 BKN200
     FM182300 VRB03KT P6SM OVC015=



000
FTUS41 KGYX 180500
TAFPWM
TAF
KPWM 180524Z 1806/1906 VRB03KT P6SM SKC
     FM181400 12008KT P6SM SCT200
     FM181900 14006KT P6SM SCT025 BKN200
     FM190000 18004KT P6SM BKN025=



000
FTUS41 KGYX 180500
TAFAUG
TAF
KAUG 180524Z 1806/1906 VRB03KT P6SM SKC
     FM181400 15006KT P6SM SCT200
     FM190000 VRB03KT P6SM BKN025=



000
FTUS41 KGYX 180500
TAFCON
TAF
KCON 180524Z 1806/1906 VRB03KT P6SM SKC
     FM181500 15006KT P6SM SCT200
     FM190000 VRB03KT P6SM SCT025 BKN100=



000
FTUS41 KGYX 172300
TAFLEB
TAF
KLEB 172320Z 1800/1824 15007KT P6SM SKC
     FM180100 VRB03KT P6SM SKC=



000
FTUS41 KGYX 172300
TAFPSM
TAF
KPSM 172320Z 1800/1824 09007KT P6SM SKC
     FM181400 12009KT P6SM BKN030=



000
FTUS41 KGYX 172300
TAFAUG
TAF
KAUG 172320Z 1800/1824 VRB03KT P6SM SKC
     FM181500 10005KT P6SM SKC=



000
FTUS41 KGYX 172300
TAFPWM
TAF
KPWM 172320Z 1800/1824 09005KT P6SM SKC
     FM181600 12009KT P6SM SCT030=



000
FTUS41 KGYX 172300
TAFCON
TAF
KCON 172320Z 1800/1824 11005KT P6SM SKC
     FM181500 11008KT P6SM SCT030=



000
FTUS41 KGYX 171700
TAFLEB
TAF
KLEB 171722Z 1718/1818 15008KT P6SM SCT250
     FM180100 VRB03KT P6SM SKC=



000
FTUS41 KGYX 171700
TAFPSM
TAF
KPSM 171722Z 1718/1818 06012KT P6SM SCT040
     FM180200 07006KT P6SM SCT030
     FM181300 11009KT P6SM BKN030=



000
FTUS41 KGYX 171700
TAFCON
TAF
KCON 171722Z 1718/1818 09007KT P6SM SCT250
     FM180000 00000KT P6SM SKC
     FM181500 11005KT P6SM SCT030=



000
FTUS41 KGYX 171700
TAFAUG
TAF
KAUG 171722Z 1718/1818 VRB03KT P6SM SCT250
     FM181500 10005KT P6SM SKC=



000
FTUS41 KGYX 171700
TAFPWM
TAF
KPWM 171722Z 1718/1818 11010KT P6SM SCT250
     FM180000 09005KT P6SM SKC
     FM181300 11009KT P6SM SCT030=



000
FTUS41 KGYX 171100
TAFPSM
TAF
KPSM 171120Z 1712/1812 04007KT P6SM FEW250
     FM171500 09012KT P6SM FEW250
     FM180200 07006KT P6SM SKC=



000
FTUS41 KGYX 171100
TAFPWM
TAF
KPWM 171120Z 1712/1812 06008KT P6SM FEW250
     FM171800 10010KT P6SM FEW250
     FM180000 09005KT P6SM SKC=



000
FTUS41 KGYX 171100
TAFLEB
TAF
KLEB 171120Z 1712/1812 00000KT P6SM FEW250
     FM171500 36008KT P6SM FEW250
     FM180100 00000KT P6SM SKC=



000
FTUS41 KGYX 171100
TAFCON
TAF
KCON 171120Z 1712/1812 VRB03KT P6SM FEW250
     FM171600 09009KT P6SM FEW250
     FM180000 00000KT P6SM SKC=



000
FTUS41 KGYX 171100
TAFAUG
TAF
KAUG 171120Z 1712/1812 01005KT P6SM SKC
     FM171500 06006KT P6SM FEW250=



000
FTUS41 KGYX 170900 AAA
TAFCON
TAF AMD
KCON 170922Z 1709/1806 VRB03KT P6SM SKC
     FM171600 11009KT P6SM SKC=



000
FTUS41 KGYX 170900 AAA
TAFAUG
TAF AMD
KAUG 170922Z 1709/1806 36005KT P6SM SKC
     FM171500 06006KT P6SM SKC
     FM171800 12006KT P6SM SKC=



000
FTUS41 KGYX 170900 AAA
TAFPWM
TAF AMD
KPWM 170922Z 1709/1806 03005KT P6SM SKC
     FM171200 06008KT P6SM SKC
     FM171800 13008KT P6SM SKC=



000
FTUS41 KGYX 170900 AAA
TAFLEB
TAF AMD
KLEB 170922Z 1709/1806 00000KT P6SM SKC
     FM171500 06008KT P6SM SKC
     FM180100 00000KT P6SM SKC=



000
FTUS41 KGYX 170900 AAA
TAFPSM
TAF AMD
KPSM 170922Z 1709/1806 04007KT P6SM SKC
     FM171500 09012KT P6SM SKC
     FM180200 07006KT P6SM SKC=



000
FTUS41 KGYX 170500
TAFAUG
TAF
KAUG 170525Z 1706/1806 36005KT P6SM SKC
     FM171500 06006KT P6SM SKC
     FM171800 12006KT P6SM SKC=



000
FTUS41 KGYX 170500
TAFLEB
TAF
KLEB 170525Z 1706/1806 00000KT P6SM SKC
     FM171500 06008KT P6SM SKC
     FM180100 00000KT P6SM SKC=



000
FTUS41 KGYX 170500
TAFPWM
TAF
KPWM 170525Z 1706/1806 03005KT P6SM SKC
     FM171200 06008KT P6SM SKC
     FM171800 13008KT P6SM SKC=



000
FTUS41 KGYX 170500
TAFCON
TAF
KCON 170525Z 1706/1806 VRB03KT P6SM SKC
     FM171600 11009KT P6SM SKC=



000
FTUS41 KGYX 170500
TAFPSM
TAF
KPSM 170525Z 1706/1806 04007KT P6SM SKC
     FM171500 09012KT P6SM SKC
     FM180200 07006KT P6SM SKC=



000
FTUS41 KGYX 162300
TAFLEB
TAF
KLEB 162320Z 1700/1724 00000KT P6SM SKC
     FM171600 12008KT P6SM SCT250=



000
FTUS41 KGYX 162300
TAFCON
TAF
KCON 162320Z 1700/1724 00000KT P6SM SKC
     FM171400 04005KT P6SM SCT250
     FM171700 10008KT P6SM SCT250=



000
FTUS41 KGYX 162300
TAFPWM
TAF
KPWM 162320Z 1700/1724 36007KT P6SM SKC
     FM171200 03008KT P6SM SKC
     FM171500 09010KT P6SM SCT250=



000
FTUS41 KGYX 162300
TAFPSM
TAF
KPSM 162320Z 1700/1724 34007KT P6SM SKC
     FM171100 04007KT P6SM SKC
     FM171400 09012KT P6SM SCT250
     FM172200 09010KT P6SM SCT010 SCT250=



000
FTUS41 KGYX 162300
TAFAUG
TAF
KAUG 162320Z 1700/1724 34005KT P6SM SKC
     FM171400 05005KT P6SM SCT250
     FM171900 10007KT P6SM SCT250=



000
FTUS41 KGYX 161700
TAFCON
TAF
KCON 161725Z 1618/1718 31010G18KT P6SM SCT045
     FM170100 00000KT P6SM SKC
     FM171300 07005KT P6SM SKC=



000
FTUS41 KGYX 161700
TAFPWM
TAF
KPWM 161725Z 1618/1718 33012G20KT P6SM SCT045
     FM170000 VRB04KT P6SM SKC
     FM171300 08010KT P6SM SKC=



000
FTUS41 KGYX 161700
TAFPSM
TAF
KPSM 161725Z 1618/1718 30012G20KT P6SM SCT045
     FM170000 VRB03KT P6SM SKC
     FM171300 07009KT P6SM SKC=



000
FTUS41 KGYX 161700
TAFAUG
TAF
KAUG 161725Z 1618/1718 32010G20KT P6SM SCT045
     FM170000 32004KT P6SM SKC
     FM171300 04008KT P6SM SKC=



000
FTUS41 KGYX 161700
TAFLEB
TAF
KLEB 161725Z 1618/1718 34011KT P6SM SCT035
     FM170000 00000KT P6SM SKC=



000
FTUS41 KGYX 161100
TAFLEB
TAF
KLEB 161120Z 1612/1712 34010KT P6SM BKN025
     FM161300 33015G24KT P6SM SKC
     FM162000 33009KT P6SM SKC
     FM170000 00000KT P6SM SKC=



000
FTUS41 KGYX 161100
TAFAUG
TAF
KAUG 161120Z 1612/1712 31012G20KT P6SM SCT035
     FM161400 32018G28KT P6SM SKC
     FM162000 32012G20KT P6SM SKC
     FM170000 32004KT P6SM SKC=



000
FTUS41 KGYX 161100
TAFPSM
TAF
KPSM 161120Z 1612/1712 30020G30KT P6SM SKC
     FM162000 32012G20KT P6SM SKC
     FM170000 VRB03KT P6SM SKC=



000
FTUS41 KGYX 161100
TAFPWM
TAF
KPWM 161120Z 1612/1712 32012G20KT P6SM BKN035
     FM161400 32018G30KT P6SM SKC
     FM162000 32012G20KT P6SM SKC
     FM170000 VRB04KT P6SM SKC=



000
FTUS41 KGYX 161100
TAFCON
TAF
KCON 161120Z 1612/1712 31018G30KT P6SM SKC
     FM162000 33010G18KT P6SM SKC
     FM170100 00000KT P6SM SKC=



000
FTUS41 KGYX 160900 AAB
TAFCON
TAF AMD
KCON 160908Z 1609/1706 31018G30KT P6SM SKC
     FM162200 34008KT P6SM SKC=



000
FTUS41 KGYX 160900 AAA
TAFPSM
TAF AMD
KPSM 160908Z 1609/1706 30020G30KT P6SM SCT040
     FM162200 32008KT P6SM SKC=



000
FTUS41 KGYX 160900 AAA
TAFLEB
TAF AMD
KLEB 160908Z 1609/1706 34012G22KT P6SM BKN025
      TEMPO 1610/1612 SCT025
     FM161200 33015G24KT P6SM SCT040
     FM162100 33005KT P6SM SKC=



000
FTUS41 KGYX 160900 AAA
TAFPWM
TAF AMD
KPWM 160908Z 1609/1706 32014G20KT 2SM -SN BKN015
      TEMPO 1609/1610 P6SM NSW SCT040
     FM161000 31020G30KT P6SM SKC
     FM162200 32007KT P6SM SKC=



000
FTUS41 KGYX 160900 AAA
TAFAUG
TAF AMD
KAUG 160908Z 1609/1706 32015G22KT 1/2SM SN FZFG OVC007
     FM160930 32015G22KT P6SM SCT040
     FM161200 32018G28KT P6SM SKC
     FM162200 32008KT P6SM SKC=



000
FTUS41 KGYX 160700 AAA
TAFCON
TAF AMD
KCON 160700Z 1607/1706 30008KT 2SM -SN OVC015
     FM160730 31010G17KT P6SM SCT040
     FM161200 31018G30KT P6SM SKC
     FM162200 34008KT P6SM SKC=



000
FTUS41 KGYX 160500
TAFLEB
TAF
KLEB 160537Z 1606/1706 35008KT P6SM SCT005 BKN015 OVC025
      TEMPO 1606/1607 1/2SM SN FG BKN004
     FM160900 32012G22KT P6SM BKN020
     FM161200 33015G24KT P6SM SCT040
     FM162100 33005KT P6SM SKC=



000
FTUS41 KGYX 160500
TAFPSM
TAF
KPSM 160537Z 1606/1706 29017G28KT 6SM -RASNPL SCT015 OVC040
     FM160640 30017G28KT 2SM -SN BKN008 OVC025
     FM160800 30020G30KT P6SM SCT040
     FM162200 32008KT P6SM SKC=



000
FTUS41 KGYX 160500
TAFAUG
TAF
KAUG 160537Z 1606/1706 31010G17KT 4SM -RA BR BKN015 OVC035
      TEMPO 1606/1607 4SM -SNPL BKN008
     FM160700 31010G15KT 2SM -SN OVC008
     FM161000 32014G20KT P6SM SCT040
     FM161200 32018G28KT P6SM SKC
     FM162200 32008KT P6SM SKC=



000
FTUS41 KGYX 160500
TAFPWM
TAF
KPWM 160537Z 1606/1706 33010G15KT 4SM -RA BR SCT008 OVC015
      TEMPO 1606/1607 4SM -SNPL BKN008
     FM160700 32010G15KT 2SM -SN OVC008
     FM160900 32014G20KT P6SM SCT040
     FM161200 31020G30KT P6SM SKC
     FM162200 32007KT P6SM SKC=



000
FTUS41 KGYX 160500
TAFCON
TAF
KCON 160537Z 1606/1706 30008KT 3SM -SN OVC009
     FM160700 31010G17KT P6SM SCT040
     FM161200 31018G30KT P6SM SKC
     FM162200 34008KT P6SM SKC=



000
FTUS41 KGYX 160400 AAE
TAFAUG
TAF AMD
KAUG 160442Z 1605/1624 31010G17KT 4SM -RA BR BKN015 OVC025
     FM160700 31015G25KT 3SM -SN OVC010
     FM161000 32017G30KT P6SM SCT040
     FM162200 32010KT P6SM SKC=



000
FTUS41 KGYX 160400 AAD
TAFPWM
TAF AMD
KPWM 160442Z 1605/1624 34011G20KT 4SM -RA BR FEW007 OVC015
     FM160800 32015G25KT 3SM -SN OVC008
     FM161000 31017G30KT P6SM SCT040
     FM162200 32010KT P6SM SKC=



000
FTUS41 KGYX 160400 AAE
TAFCON
TAF AMD
KCON 160442Z 1605/1624 30010G15KT 3SM -SN OVC015
     FM160700 32017G30KT P6SM SCT040
     FM162200 32010KT P6SM SKC=



000
FTUS41 KGYX 160400 AAF
TAFLEB
TAF AMD
KLEB 160442Z 1605/1624 28008KT 3SM -SN BKN003 OVC015
     FM160700 30012G22KT P6SM BKN020
     FM161200 32015G25KT P6SM SCT040
     FM162200 34008KT P6SM SKC=



000
FTUS41 KGYX 160400 AAD
TAFPSM
TAF AMD
KPSM 160442Z 1605/1624 29016G27KT 6SM -RA SCT015 OVC040
     FM160700 30017G30KT 4SM -SN SCT008 OVC015
     FM160900 31017G30KT P6SM SCT040
     FM162200 31010KT P6SM SKC=



000
FTUS41 KGYX 160300 AAE
TAFLEB
TAF AMD
KLEB 160340Z 1604/1624 27008KT 6SM -SHSN OVC003
     FM160500 29008G18KT 5SM -SHSN OVC007
     FM160800 30012G22KT P6SM BKN020
     FM161200 32015G25KT P6SM SCT040
     FM162200 34008KT P6SM SKC=



000
FTUS41 KGYX 160300 AAC
TAFPWM
TAF AMD
KPWM 160318Z 1603/1624 29010G17KT 4SM -SHRA BKN009 OVC030
     FM160430 30015G25KT P6SM -SHRA SCT015 OVC030
     FM160600 30015G25KT 6SM -SHRASN OVC040
     FM160900 32017G30KT P6SM SCT040
     FM162200 32010KT P6SM SKC=



000
FTUS41 KGYX 160300 AAD
TAFCON
TAF AMD
KCON 160306Z 1603/1624 30015G25KT 6SM -SHRA FEW012 OVC020
     FM160400 30015G25KT 6SM -SHRASN SCT025 OVC040
     FM160700 32017G30KT P6SM SCT040
     FM162200 32010KT P6SM SKC=



000
FTUS41 KGYX 160300 AAC
TAFPSM
TAF AMD
KPSM 160305Z 1603/1624 29015G25KT 6SM -SHRA FEW004 BKN015 OVC030
     FM160500 29015G25KT 6SM -SHRASN SCT015 OVC040
     FM160800 31017G30KT P6SM SCT040
     FM162200 31010KT P6SM SKC=



000
FTUS41 KGYX 160300 AAD
TAFLEB
TAF AMD
KLEB 160304Z 1603/1624 29010KT 5SM -SHRA BKN007 OVC015
     FM160500 30012G22KT 5SM -SHSN SCT015 OVC025
     FM160800 30012G22KT P6SM BKN030
     FM161200 32015G25KT P6SM SCT040
     FM162200 34008KT P6SM SKC=



000
FTUS41 KGYX 160300 AAC
TAFCON
TAF AMD
KCON 160304Z 1603/1624 30015G25KT 5SM -SHRA BR FEW009 BKN012 OVC025
     FM160400 30015G25KT 6SM -SHRASN SCT025 OVC040
     FM160700 32017G30KT P6SM SCT040
     FM162200 32010KT P6SM SKC=



000
FTUS41 KGYX 160200 AAB
TAFPWM
TAF AMD
KPWM 160258Z 1603/1624 27012G18KT P6SM -SHRA SCT015 OVC030
     FM160430 30015G25KT P6SM -SHRA OVC040
     FM160600 30015G25KT 6SM -SHRASN OVC040
     FM160900 32017G30KT P6SM SCT040
     FM162200 32010KT P6SM SKC=



000
FTUS41 KGYX 160200 AAD
TAFAUG
TAF AMD
KAUG 160241Z 1603/1624 30015G25KT 4SM -SHRA BR FEW008 SCT017 OVC025
     FM160500 30015G25KT P6SM -SHRA OVC040
     FM160700 30015G25KT 6SM -SHRASN OVC040
     FM161000 32017G30KT P6SM SCT040
     FM162200 32010KT P6SM SKC=



000
FTUS41 KGYX 160200 AAC
TAFAUG
TAF AMD
KAUG 160229Z 1602/1624 30012G20KT 2SM SHRA SCT006 BKN017 OVC025
     FM160330 30015G25KT 4SM -SHRA BR SCT017 OVC025
     FM160500 30015G25KT P6SM -SHRA OVC040
     FM160700 30015G25KT 6SM -SHRASN OVC040
     FM161000 32017G30KT P6SM SCT040
     FM162200 32010KT P6SM SKC=



000
FTUS41 KGYX 160200 AAC
TAFLEB
TAF AMD
KLEB 160228Z 1602/1624 29008G15KT 5SM -SHRA BKN007 OVC011
     FM160300 30010G20KT 5SM -SHRASN BKN011 OVC025
     FM160500 30012G22KT 5SM -SHSN OVC030
     FM160800 30012G22KT P6SM BKN030
     FM161200 32015G25KT P6SM SCT040
     FM162200 34008KT P6SM SKC=



000
FTUS41 KGYX 160200 AAB
TAFAUG
TAF AMD
KAUG 160221Z 1602/1624 30012G20KT 1 1/2SM SHRA SCT006 OVC010
     FM160300 30015G25KT 4SM -SHRA BR SCT010 OVC020
     FM160500 30015G25KT P6SM -SHRA OVC040
     FM160700 30015G25KT 6SM -SHRASN OVC040
     FM161000 32017G30KT P6SM SCT040
     FM162200 32010KT P6SM SKC=



000
FTUS41 KGYX 160200 AAB
TAFLEB
TAF AMD
KLEB 160208Z 1602/1624 29008G15KT 5SM -SHRA SCT009 SCT015 OVC025
     FM160300 30010G20KT 5SM -SHRASN OVC025
     FM160500 30012G22KT 5SM -SHSN OVC030
     FM160800 30012G22KT P6SM BKN030
     FM161200 32015G25KT P6SM SCT040
     FM162200 34008KT P6SM SKC=



000
FTUS41 KGYX 160200 AAB
TAFCON
TAF AMD
KCON 160207Z 1602/1624 30010G20KT 5SM -SHRA OVC015
     FM160300 30015G25KT P6SM -SHRA OVC025
     FM160400 30015G25KT 6SM -SHRASN OVC040
     FM160700 32017G30KT P6SM SCT040
     FM162200 32010KT P6SM SKC=



000
FTUS41 KGYX 160200 AAB
TAFPSM
TAF AMD
KPSM 160206Z 1602/1624 29008G15KT 6SM -SHRA FEW003 BKN007 OVC020
     FM160300 29015G25KT P6SM -SHRA SCT007 OVC030
     FM160500 29015G25KT 6SM -SHRASN OVC040
     FM160800 31017G30KT P6SM SCT040
     FM162200 31010KT P6SM SKC=



000
FTUS41 KGYX 160200 AAA
TAFPWM
TAF AMD
KPWM 160205Z 1602/1624 19012G22KT 1 1/2SM -SHRA BR OVC002
     FM160230 30015G25KT 4SM -SHRA BR SCT002 OVC015
     FM160400 30015G25KT P6SM -SHRA OVC040
     FM160600 30015G25KT 6SM -SHRASN OVC040
     FM160900 32017G30KT P6SM SCT040
     FM162200 32010KT P6SM SKC=



000
FTUS41 KGYX 160100 AAA
TAFLEB
TAF AMD
KLEB 160106Z 1601/1624 29008G18KT 6SM -SHRA BKN015 OVC025
     FM160300 30012G22KT 5SM -SHRASN OVC030
     FM160500 30012G22KT 5SM -SHSN OVC030
     FM160800 30012G22KT P6SM BKN030
     FM161200 32015G25KT P6SM SCT040
     FM162200 34008KT P6SM SKC=



000
FTUS41 KGYX 160100 AAA
TAFCON
TAF AMD
KCON 160106Z 1601/1624 30015G25KT 4SM -SHRA OVC018
     FM160200 30015G25KT P6SM -SHRA OVC040
     FM160400 30015G25KT 6SM -SHRASN OVC040
     FM160700 32017G30KT P6SM SCT040
     FM162200 32010KT P6SM SKC=



000
FTUS41 KGYX 160100 AAA
TAFPSM
TAF AMD
KPSM 160105Z 1601/1624 19012G22KT 6SM -SHRA SCT006 OVC015
     FM160130 29015G25KT 6SM -SHRA SCT015 OVC030
     FM160300 29015G25KT P6SM -SHRA OVC040
     FM160500 29015G25KT 6SM -SHRASN OVC040
     FM160800 31017G30KT P6SM SCT040
     FM162200 31010KT P6SM SKC=



000
FTUS41 KGYX 160100 AAA
TAFAUG
TAF AMD
KAUG 160104Z 1601/1624 19012G22KT 6SM -SHRA OVC004
     FM160300 30015G25KT 5SM -SHRA BR SCT004 OVC020
     FM160500 30015G25KT P6SM -SHRA OVC040
     FM160700 30015G25KT 6SM -SHRASN OVC040
     FM161000 32017G30KT P6SM SCT040
     FM162200 32010KT P6SM SKC=



000
FTUS41 KGYX 152300
TAFAUG
TAF
KAUG 152327Z 1600/1624 18015G30KT 2SM -SHRA BR OVC006 WS020/21060KT
     FM160100 19012G22KT 3SM -SHRA BR OVC006
     FM160300 30015G25KT 5SM -SHRA BR SCT006 OVC020
     FM160500 30015G25KT P6SM -SHRA OVC040
     FM160700 30015G25KT 6SM -SHRASN OVC040
     FM161000 32017G30KT P6SM SCT040
     FM162200 32010KT P6SM SKC=



000
FTUS41 KGYX 152300
TAFLEB
TAF
KLEB 152327Z 1600/1624 29008G18KT 5SM -SHRA SCT020 OVC040
     FM160300 30012G22KT 5SM -SHRASN OVC030
     FM160500 30012G22KT 5SM -SHSN OVC030
     FM160800 30012G22KT P6SM BKN030
     FM161200 32015G25KT P6SM SCT040
     FM162200 34008KT P6SM SKC=



000
FTUS41 KGYX 152300
TAFPWM
TAF
KPWM 152327Z 1600/1624 19012G22KT 3SM -SHRA BR OVC004
     FM160200 30015G25KT 5SM -SHRA BR SCT004 OVC020
     FM160400 30015G25KT P6SM -SHRA OVC040
     FM160600 30015G25KT 6SM -SHRASN OVC040
     FM160900 32017G30KT P6SM SCT040
     FM162200 32010KT P6SM SKC=



000
FTUS41 KGYX 152300
TAFCON
TAF
KCON 152327Z 1600/1624 30015G25KT 6SM -SHRA SCT015 OVC030
     FM160200 30015G25KT P6SM -SHRA OVC040
     FM160400 30015G25KT 6SM -SHRASN OVC040
     FM160700 32017G30KT P6SM SCT040
     FM162200 32010KT P6SM SKC=



000
FTUS41 KGYX 152300
TAFPSM
TAF
KPSM 152327Z 1600/1624 19012G22KT 6SM -SHRA OVC015
     FM160100 29015G25KT 6SM -SHRA SCT015 OVC030
     FM160300 29015G25KT P6SM -SHRA OVC040
     FM160500 29015G25KT 6SM -SHRASN OVC040
     FM160800 31017G30KT P6SM SCT040
     FM162200 31010KT P6SM SKC=



000
FTUS41 KGYX 152100 AAD
TAFLEB
TAF AMD
KLEB 152156Z 1522/1618 26010KT 2SM -SHRA BR SCT005 SCT012 OVC030
     FM160000 32012G20KT 4SM -SHRA BR BKN015 OVC030
     FM160400 31012G25KT 4SM -RASN BKN025 OVC040
     FM160700 31012KT P6SM BKN035 OVC050
     FM161200 33013G23KT P6SM SCT050=



000
FTUS41 KGYX 152100 AAC
TAFCON
TAF AMD
KCON 152155Z 1522/1618 18012G22KT P6SM -SHRA BKN018 OVC025
      WS020/19060KT
     FM160000 29015G25KT P6SM -SHRA SCT015 BKN025 OVC040
     FM160500 30012KT P6SM SCT030 BKN040 BKN080
     FM161200 32020G30KT P6SM SCT050=



000
FTUS41 KGYX 152100 AAC
TAFLEB
TAF AMD
KLEB 152125Z 1521/1618 26015G25KT 2SM RA BR SCT003 OVC012
     FM160000 32012G20KT 4SM -RA BR BKN015 OVC030
     FM160400 31012G25KT 4SM -RASN BKN025 OVC040
     FM160700 31012KT P6SM BKN035 OVC050
     FM161200 33013G23KT P6SM SCT050=



000
FTUS41 KGYX 152100 AAC
TAFAUG
TAF AMD
KAUG 152118Z 1521/1618 18016G32KT 4SM BR OVC008 WS020/19060KT
     FM152300 18015G25KT 2SM RA BR OVC004 WS020/19060KT
     FM160400 32015G25KT 4SM -RA BR BKN020 OVC040
     FM160800 33020G27KT P6SM -RASN SCT020 BKN045 BKN080
     FM161200 31017G27KT P6SM FEW050=



000
FTUS41 KGYX 152100 AAB
TAFLEB
TAF AMD
KLEB 152113Z 1521/1618 21010G18KT 3SM RA BR BKN015 OVC030
     FM160000 32012G20KT 4SM -RA BR BKN015 OVC030
     FM160400 31012G25KT 4SM -RASN BKN025 OVC040
     FM160700 31012KT P6SM BKN035 OVC050
     FM161200 33013G23KT P6SM SCT050=



000
FTUS41 KGYX 152100 AAB
TAFAUG
TAF AMD
KAUG 152112Z 1521/1618 18016G32KT 4SM BR OVC010 WS020/19060KT
     FM152300 18015G25KT 2SM RA BR OVC004 WS020/19060KT
     FM160400 32015G25KT 4SM -RA BR BKN020 OVC040
     FM160800 33020G27KT P6SM -RASN SCT020 BKN045 BKN080
     FM161200 31017G27KT P6SM FEW050=



000
FTUS41 KGYX 152100 AAC
TAFPWM
TAF AMD
KPWM 152111Z 1521/1618 18015G25KT 4SM RA BR OVC004 WS020/19060KT
     FM160500 30015G25KT 4SM -RA BR BKN025 OVC040
     FM160700 31015G25KT P6SM SCT020 BKN050
     FM161300 32018G28KT P6SM SKC=



000
FTUS41 KGYX 152000 AAB
TAFCON
TAF AMD
KCON 152056Z 1521/1618 18015G25KT 6SM -RA BR SCT015 OVC020
      WS020/19060KT
     FM152300 19010G20KT 2SM RA BR BKN015 OVC025
     FM160200 29017G27KT P6SM -RA SCT015 BKN025 OVC040
     FM160500 30012KT P6SM SCT030 BKN040 BKN080
     FM161200 32020G30KT P6SM SCT050=



000
FTUS41 KGYX 152000 AAB
TAFPWM
TAF AMD
KPWM 152039Z 1521/1618 18015G25KT 4SM RA BR BKN009 OVC018
      WS020/19060KT
     FM160500 30015G25KT 4SM -RA BR BKN025 OVC040
     FM160700 31015G25KT P6SM SCT020 BKN050
     FM161300 32018G28KT P6SM SKC=



000
FTUS41 KGYX 152000 AAA
TAFAUG
TAF AMD
KAUG 152035Z 1521/1618 18015G30KT 6SM SHRA BR BKN009 OVC018
      WS020/19060KT
     FM152300 16015G25KT 2SM RA BR BKN015 OVC025 WS020/19060KT
     FM160400 32015G25KT 4SM -RA BR BKN020 OVC040
     FM160800 33020G27KT P6SM -RASN SCT020 BKN045 BKN080
     FM161200 31017G27KT P6SM FEW050=



000
FTUS41 KGYX 152000 AAA
TAFCON
TAF AMD
KCON 152009Z 1520/1618 17015G30KT 6SM RA BR BKN015 OVC025
      WS020/19060KT
     FM152200 19010G20KT 2SM RA BR BKN015 OVC025
     FM160200 29017G27KT P6SM -RA SCT015 BKN025 OVC040
     FM160500 30012KT P6SM SCT030 BKN040 BKN080
     FM161200 32020G30KT P6SM SCT050=



000
FTUS41 KGYX 152000 AAA
TAFLEB
TAF AMD
KLEB 152009Z 1520/1618 19015G25KT 4SM RA BR SCT015 OVC050
     FM160000 32012G20KT 4SM -RA BR BKN015 OVC030
     FM160400 31012G25KT 4SM -RASN BKN025 OVC040
     FM160700 31012KT P6SM BKN035 OVC050
     FM161200 33013G23KT P6SM SCT050=



000
FTUS41 KGYX 152000 AAA
TAFPSM
TAF AMD
KPSM 152008Z 1520/1618 17015G25KT 3SM RA BR SCT007 OVC015
      WS020/19055KT
     FM160200 26017G27KT 4SM -RA BR SCT012 BKN025 OVC040
     FM160500 29017G25KT P6SM SCT025 BKN045 OVC080
     FM161000 29018G28KT P6SM SCT050
     FM161400 30022G32KT P6SM SKC=



000
FTUS41 KGYX 152000 AAA
TAFPWM
TAF AMD
KPWM 152006Z 1520/1618 18015G25KT 4SM RA BR SCT008 OVC020
      WS020/19060KT
     FM160500 30015G25KT 4SM -RA BR BKN025 OVC040
     FM160700 31015G25KT P6SM SCT020 BKN050
     FM161300 32018G28KT P6SM SKC=



000
FTUS41 KGYX 151700
TAFAUG
TAF
KAUG 151733Z 1518/1618 18015G25KT 3SM SHRA BR SCT008 BKN012 OVC025
      WS020/19060KT
     FM152100 16015G25KT 1 1/2SM +RA BR BKN015 OVC025 WS020/19060KT
     FM160400 32015G25KT 4SM -RA BR BKN020 OVC040
     FM160800 33020G27KT P6SM -RASN SCT020 BKN045 BKN080
     FM161200 31017G27KT P6SM FEW050=



000
FTUS41 KGYX 151700
TAFPWM
TAF
KPWM 151733Z 1518/1618 18015G25KT 4SM SHRA BR BKN006 OVC012
     FM152000 19018G28KT 1SM +RA BR SCT012 OVC025 WS020/19060KT
     FM160500 30015G25KT 4SM -RA BR BKN025 OVC040
     FM160700 31015G25KT P6SM SCT020 BKN050
     FM161300 32018G28KT P6SM SKC=



000
FTUS41 KGYX 151700
TAFCON
TAF
KCON 151733Z 1518/1618 15015G25KT 2SM RA BR SCT012 OVC020
      WS020/19060KT
     FM151900 18015G25KT 1SM +RA BR BKN012 OVC020 WS020/20060KT
     FM152200 19010G20KT 1SM +RA BR BKN012 OVC025
     FM160200 29017G27KT P6SM -RA SCT015 BKN025 OVC040
     FM160500 30012KT P6SM SCT030 BKN040 BKN080
     FM161200 32020G30KT P6SM SCT050=



000
FTUS41 KGYX 151700
TAFLEB
TAF
KLEB 151733Z 1518/1618 19015G25KT 2SM +RA BR SCT015 OVC025
     FM160000 32012G20KT 4SM -RA BR BKN012 OVC020
     FM160400 31012G24KT 4SM -RASN BKN025 OVC040
     FM160700 31012KT P6SM BKN035 OVC050
     FM161200 33013G23KT P6SM SCT050=



000
FTUS41 KGYX 151700
TAFPSM
TAF
KPSM 151733Z 1518/1618 18012G24KT 3SM RA BR SCT012 OVC025
     FM152000 16018G28KT 1SM +RA BR BKN012 OVC025 WS020/19055KT
     FM160200 26017G27KT 4SM -RA BR SCT012 BKN025 OVC040
     FM160500 29017G25KT P6SM SCT025 BKN045 OVC080
     FM161000 29018G28KT P6SM SCT050
     FM161400 30022G32KT P6SM SKC=



000
FTUS41 KGYX 151400 AAA
TAFCON
TAF AMD
KCON 151418Z 1514/1612 16014G24KT 5SM SHRA BR OVC015
     FM151600 15015G25KT 2SM RA BR SCT008 OVC012 WS020/19060KT
     FM151900 16015G25KT 1SM +RA BR BKN007 OVC012 WS020/20060KT
     FM152200 18010G20KT 1SM +RA BR OVC006
     FM160200 29017G27KT P6SM -RA BKN012=



000
FTUS41 KGYX 151400 AAB
TAFPSM
TAF AMD
KPSM 151412Z 1514/1612 18012G24KT P6SM OVC015
      TEMPO 1514/1517 3SM SHRA BR BKN007 OVC012
     FM151700 17014G24KT 2SM -RA BR OVC008
     FM152000 16018G28KT 1SM +RA BR OVC004 WS020/19055KT
     FM160200 26022G30KT 4SM -RA BR OVC007
     FM160600 29017G25KT P6SM -RA OVC015=



000
FTUS41 KGYX 151400 AAB
TAFAUG
TAF AMD
KAUG 151405Z 1514/1612 18010G18KT P6SM -SHRA BKN004 OVC010
     FM151600 17012G20KT 3SM RA BR OVC004 WS020/19060KT
     FM152100 16015G25KT 1/2SM +RA FG OVC002 WS020/19060KT
     FM160400 32015G25KT 4SM -RA BR OVC006
     FM160800 33020G27KT P6SM -RA OVC015=



000
FTUS41 KGYX 151400 AAA
TAFPWM
TAF AMD
KPWM 151404Z 1514/1612 18015G20KT 3/4SM -DZ BR OVC002
      TEMPO 1514/1518 2SM SHRA BR BKN006 OVC012
     FM151800 18015G25KT 1 1/2SM RA BR OVC002
     FM152100 19018G28KT 1SM +RA BR OVC002 WS020/19060KT
     FM160300 30015G25KT 4SM -RA BR OVC007
     FM160700 33015G25KT P6SM -RA OVC015=



000
FTUS41 KGYX 151200 AAA
TAFLEB
TAF AMD
KLEB 151217Z 1512/1612 19013G23KT P6SM -SHRA OVC015
     FM151600 18014G24KT 4SM -RA BR BKN007 OVC012
     FM151700 19015G25KT 1SM +RA BR BKN005 OVC010
     FM160000 32012G20KT 4SM -RA BR BKN007
     FM160400 31012G24KT 4SM -SN OVC025=



000
FTUS41 KGYX 151200 AAA
TAFPSM
TAF AMD
KPSM 151214Z 1512/1612 17012G20KT P6SM BKN015
     FM151300 17013G20KT P6SM -SHRA BKN007 OVC015
     FM151500 17014G24KT 3SM -RA BR OVC005
     FM151800 16018G28KT 1SM +RA BR OVC002 WS020/19055KT
     FM160200 26022G30KT 4SM -RA BR OVC007
     FM160600 29017G25KT P6SM -RA OVC015=



000
FTUS41 KGYX 151200 AAA
TAFAUG
TAF AMD
KAUG 151210Z 1512/1612 18010G18KT P6SM BKN006 BKN025
     FM151600 17012G20KT 2SM -RA BR OVC004 WS020/19060KT
     FM152100 16015G25KT 1/2SM +RA FG OVC002 WS020/19060KT
     FM160400 32015G25KT 4SM -RA BR OVC006
     FM160800 33020G27KT P6SM -RA OVC015=



000
FTUS41 KGYX 151100
TAFCON
TAF
KCON 151120Z 1512/1612 17010G17KT P6SM SCT015 BKN025
     FM151300 17010G20KT P6SM BKN015 OVC030
     FM151500 15011G20KT 4SM -RA BR BKN007
     FM151700 16015G25KT 1SM +RA BR BKN003
     FM160200 29017G27KT P6SM -RA BKN012=



000
FTUS41 KGYX 151100
TAFPSM
TAF
KPSM 151120Z 1512/1612 20012G20KT P6SM BKN015
     FM151300 18013G20KT P6SM BKN007 OVC015
     FM151500 17014G24KT 3SM -DZ BR OVC005
     FM151800 16018G28KT 1SM +RA BR OVC002 WS020/19055KT
     FM160200 26022G30KT 4SM -RA BR OVC007
     FM160600 29017G25KT P6SM -RA OVC015=



000
FTUS41 KGYX 151100
TAFAUG
TAF
KAUG 151120Z 1512/1612 18010G18KT P6SM BKN005 BKN025
     FM151600 17012G20KT 2SM -RA BR OVC005 WS020/19060KT
     FM152100 16015G25KT 1/2SM +RA FG OVC002 WS020/19060KT
     FM160400 32015G25KT 4SM -RA BR OVC006
     FM160800 33020G27KT P6SM -RA OVC015=



000
FTUS41 KGYX 151100
TAFLEB
TAF
KLEB 151120Z 1512/1612 19013G20KT P6SM BKN020
     FM151300 19013G23KT 3SM -RA BR BKN007
     FM151700 19015G25KT 1SM +RA BR BKN003
     FM160000 32012G20KT 4SM -RA BR BKN007
     FM160400 31012G24KT 4SM -SN OVC025=



000
FTUS41 KGYX 151100
TAFPWM
TAF
KPWM 151120Z 1512/1612 18015G20KT P6SM BKN005 OVC025
     FM151500 19015G25KT 3SM -RA BR OVC004 WS020/19060KT
     FM152100 19018G28KT 1SM +RA BR OVC002 WS020/19060KT
     FM160300 30015G25KT 4SM -RA BR OVC007
     FM160700 33015G25KT P6SM -RA OVC015=



    US Dept of Commerce
    National Oceanic and Atmospheric Administration
    National Weather Service
    1325 East West Highway
    Silver Spring, MD 20910
    Page Author: NWS Internet Services Team
Disclaimer
Information Quality
Credits
Glossary
Privacy Policy
Freedom of Information Act (FOIA)
About Us
Career Opportunities